sensor_id;sensor_type;location;lat;lon;timestamp;pressure;altitude;pressure_sealevel;temperature;humidity
2192;BME280;1102;49.718;11.902;2022-11-11T00:00:03;97730.59;;;1.66;100.00
2192;BME280;1102;49.718;11.902;2022-11-11T00:02:48;97702.28;;;1.58;100.00
2192;BME280;1102;49.718;11.902;2022-11-11T00:05:33;97719.25;;;1.32;100.00
2192;BME280;1102;49.718;11.902;2022-11-11T00:08:19;97729.03;;;1.25;100.00
2192;BME280;1102;49.718;11.902;2022-11-11T00:11:09;97745.94;;;1.51;100.00
2192;BME280;1102;49.718;11.902;2022-11-11T00:13:55;97746.81;;;1.56;100.00
2192;BME280;1102;49.718;11.902;2022-11-11T00:16:40;97739.66;;;1.63;100.00
2192;BME280;1102;49.718;11.902;2022-11-11T00:19:44;97713.06;;;1.61;100.00
2192;BME280;1102;49.718;11.902;2022-11-11T00:22:48;97718.63;;;1.53;100.00
2192;BME280;1102;49.718;11.902;2022-11-11T00:25:53;97696.75;;;1.54;100.00
2192;BME280;1102;49.718;11.902;2022-11-11T00:28:58;97710.88;;;1.58;100.00
2192;BME280;1102;49.718;11.902;2022-11-11T00:31:44;97689.50;;;1.28;100.00
2192;BME280;1102;49.718;11.902;2022-11-11T00:35:05;97652.66;;;1.07;100.00
2192;BME280;1102;49.718;11.902;2022-11-11T00:38:12;97718.81;;;1.35;100.00
2192;BME280;1102;49.718;11.902;2022-11-11T00:41:21;97704.84;;;1.41;100.00
2192;BME280;1102;49.718;11.902;2022-11-11T00:44:06;97676.41;;;1.23;100.00
2192;BME280;1102;49.718;11.902;2022-11-11T00:46:51;97720.19;;;1.26;100.00
2192;BME280;1102;49.718;11.902;2022-11-11T00:49:55;97693.56;;;0.95;100.00
2192;BME280;1102;49.718;11.902;2022-11-11T00:53:01;97713.34;;;1.08;100.00
2192;BME280;1102;49.718;11.902;2022-11-11T00:55:46;97743.19;;;1.29;100.00
2192;BME280;1102;49.718;11.902;2022-11-11T00:58:31;97734.81;;;1.27;100.00
2192;BME280;1102;49.718;11.902;2022-11-11T01:01:17;97738.22;;;1.15;100.00
2192;BME280;1102;49.718;11.902;2022-11-11T01:04:03;97750.53;;;1.32;100.00
2192;BME280;1102;49.718;11.902;2022-11-11T01:06:50;97736.13;;;1.01;100.00
2192;BME280;1102;49.718;11.902;2022-11-11T01:09:35;97732.75;;;0.88;100.00
2192;BME280;1102;49.718;11.902;2022-11-11T01:12:20;97733.78;;;0.64;100.00
2192;BME280;1102;49.718;11.902;2022-11-11T01:15:06;97718.16;;;0.52;100.00
2192;BME280;1102;49.718;11.902;2022-11-11T01:17:51;97728.72;;;0.69;100.00
2192;BME280;1102;49.718;11.902;2022-11-11T01:20:37;97763.41;;;0.98;100.00
2192;BME280;1102;49.718;11.902;2022-11-11T01:23:23;97745.59;;;1.07;100.00
2192;BME280;1102;49.718;11.902;2022-11-11T01:26:14;97758.28;;;1.15;100.00
2192;BME280;1102;49.718;11.902;2022-11-11T01:29:00;97723.56;;;0.98;100.00
2192;BME280;1102;49.718;11.902;2022-11-11T01:31:45;97728.41;;;1.06;100.00
2192;BME280;1102;49.718;11.902;2022-11-11T01:34:30;97674.72;;;0.65;100.00
2192;BME280;1102;49.718;11.902;2022-11-11T01:37:15;97729.16;;;1.18;100.00
2192;BME280;1102;49.718;11.902;2022-11-11T01:40:01;97768.88;;;1.37;100.00
2192;BME280;1102;49.718;11.902;2022-11-11T01:42:47;97766.75;;;1.34;100.00
2192;BME280;1102;49.718;11.902;2022-11-11T01:45:46;97738.78;;;1.17;100.00
2192;BME280;1102;49.718;11.902;2022-11-11T01:48:42;97764.22;;;1.39;100.00
2192;BME280;1102;49.718;11.902;2022-11-11T01:52:18;97771.28;;;1.27;100.00
2192;BME280;1102;49.718;11.902;2022-11-11T01:55:11;97769.34;;;1.34;100.00
2192;BME280;1102;49.718;11.902;2022-11-11T01:58:09;97748.09;;;1.13;100.00
2192;BME280;1102;49.718;11.902;2022-11-11T02:00:57;97768.31;;;1.35;100.00
2192;BME280;1102;49.718;11.902;2022-11-11T02:03:45;97740.19;;;1.08;100.00
2192;BME280;1102;49.718;11.902;2022-11-11T02:06:57;97762.34;;;1.23;100.00
2192;BME280;1102;49.718;11.902;2022-11-11T02:09:46;97748.13;;;1.42;100.00
2192;BME280;1102;49.718;11.902;2022-11-11T02:12:32;97762.00;;;1.59;100.00
2192;BME280;1102;49.718;11.902;2022-11-11T02:15:52;97778.09;;;1.56;100.00
2192;BME280;1102;49.718;11.902;2022-11-11T02:18:38;97752.97;;;1.50;100.00
2192;BME280;1102;49.718;11.902;2022-11-11T02:21:27;97758.75;;;1.52;100.00
2192;BME280;1102;49.718;11.902;2022-11-11T02:24:23;97738.81;;;1.46;100.00
2192;BME280;1102;49.718;11.902;2022-11-11T02:27:13;97722.91;;;1.31;100.00
2192;BME280;1102;49.718;11.902;2022-11-11T02:30:00;97766.81;;;1.51;100.00
2192;BME280;1102;49.718;11.902;2022-11-11T02:32:50;97725.19;;;1.27;100.00
2192;BME280;1102;49.718;11.902;2022-11-11T02:35:40;97737.06;;;1.35;100.00
2192;BME280;1102;49.718;11.902;2022-11-11T02:38:28;97760.88;;;1.55;100.00
2192;BME280;1102;49.718;11.902;2022-11-11T02:41:14;97719.03;;;1.33;100.00
2192;BME280;1102;49.718;11.902;2022-11-11T02:44:17;97729.56;;;1.38;100.00
2192;BME280;1102;49.718;11.902;2022-11-11T02:47:03;97716.22;;;0.95;100.00
2192;BME280;1102;49.718;11.902;2022-11-11T02:49:48;97731.22;;;1.04;100.00
2192;BME280;1102;49.718;11.902;2022-11-11T02:52:34;97754.19;;;1.19;100.00
2192;BME280;1102;49.718;11.902;2022-11-11T02:55:19;97725.75;;;1.17;100.00
2192;BME280;1102;49.718;11.902;2022-11-11T02:58:05;97750.53;;;1.32;100.00
2192;BME280;1102;49.718;11.902;2022-11-11T03:00:50;97746.91;;;1.33;100.00
2192;BME280;1102;49.718;11.902;2022-11-11T03:03:36;97745.31;;;1.32;100.00
2192;BME280;1102;49.718;11.902;2022-11-11T03:06:21;97753.47;;;1.35;100.00
2192;BME280;1102;49.718;11.902;2022-11-11T03:09:06;97733.16;;;1.09;100.00
2192;BME280;1102;49.718;11.902;2022-11-11T03:11:51;97730.81;;;0.96;100.00
2192;BME280;1102;49.718;11.902;2022-11-11T03:14:37;97758.72;;;1.24;100.00
2192;BME280;1102;49.718;11.902;2022-11-11T03:17:22;97748.13;;;1.02;100.00
2192;BME280;1102;49.718;11.902;2022-11-11T03:20:26;97733.03;;;1.04;100.00
2192;BME280;1102;49.718;11.902;2022-11-11T03:23:30;97736.84;;;1.25;100.00
2192;BME280;1102;49.718;11.902;2022-11-11T03:26:15;97733.88;;;1.33;100.00
2192;BME280;1102;49.718;11.902;2022-11-11T03:29:00;97687.66;;;1.00;100.00
2192;BME280;1102;49.718;11.902;2022-11-11T03:31:45;97733.44;;;1.36;100.00
2192;BME280;1102;49.718;11.902;2022-11-11T03:34:31;97739.19;;;1.38;100.00
2192;BME280;1102;49.718;11.902;2022-11-11T03:37:16;97723.25;;;1.34;100.00
2192;BME280;1102;49.718;11.902;2022-11-11T03:40:20;97766.56;;;1.52;100.00
2192;BME280;1102;49.718;11.902;2022-11-11T03:43:05;97753.03;;;1.27;100.00
2192;BME280;1102;49.718;11.902;2022-11-11T03:45:52;97779.66;;;1.29;100.00
2192;BME280;1102;49.718;11.902;2022-11-11T03:48:37;97759.44;;;1.07;100.00
2192;BME280;1102;49.718;11.902;2022-11-11T03:51:23;97781.47;;;1.28;100.00
2192;BME280;1102;49.718;11.902;2022-11-11T03:54:08;97746.81;;;1.28;100.00
2192;BME280;1102;49.718;11.902;2022-11-11T03:56:53;97749.75;;;1.31;100.00
2192;BME280;1102;49.718;11.902;2022-11-11T03:59:58;97730.97;;;1.17;100.00
2192;BME280;1102;49.718;11.902;2022-11-11T04:02:44;97763.63;;;1.48;100.00
2192;BME280;1102;49.718;11.902;2022-11-11T04:05:47;97748.13;;;1.42;100.00
2192;BME280;1102;49.718;11.902;2022-11-11T04:08:51;97748.78;;;1.21;100.00
2192;BME280;1102;49.718;11.902;2022-11-11T04:11:55;97780.31;;;1.36;100.00
2192;BME280;1102;49.718;11.902;2022-11-11T04:14:40;97755.66;;;1.27;100.00
2192;BME280;1102;49.718;11.902;2022-11-11T04:17:44;97739.31;;;1.31;100.00
2192;BME280;1102;49.718;11.902;2022-11-11T04:20:29;97759.09;;;1.44;100.00
2192;BME280;1102;49.718;11.902;2022-11-11T04:23:33;97761.81;;;1.49;100.00
2192;BME280;1102;49.718;11.902;2022-11-11T04:26:18;97801.59;;;1.73;100.00
2192;BME280;1102;49.718;11.902;2022-11-11T04:29:04;97770.59;;;1.60;100.00
2192;BME280;1102;49.718;11.902;2022-11-11T04:32:10;97792.69;;;1.69;100.00
2192;BME280;1102;49.718;11.902;2022-11-11T04:35:14;97748.06;;;1.25;100.00
2192;BME280;1102;49.718;11.902;2022-11-11T04:37:59;97692.66;;;0.89;100.00
2192;BME280;1102;49.718;11.902;2022-11-11T04:41:03;97785.41;;;1.42;100.00
2192;BME280;1102;49.718;11.902;2022-11-11T04:43:48;97793.25;;;1.59;100.00
2192;BME280;1102;49.718;11.902;2022-11-11T04:46:52;97797.91;;;1.57;100.00
2192;BME280;1102;49.718;11.902;2022-11-11T04:49:37;97775.66;;;1.50;100.00
2192;BME280;1102;49.718;11.902;2022-11-11T04:52:22;97804.31;;;1.78;100.00
2192;BME280;1102;49.718;11.902;2022-11-11T04:55:11;97783.50;;;1.66;100.00
2192;BME280;1102;49.718;11.902;2022-11-11T04:58:16;97799.97;;;1.84;100.00
2192;BME280;1102;49.718;11.902;2022-11-11T05:01:02;97785.16;;;1.72;100.00
2192;BME280;1102;49.718;11.902;2022-11-11T05:03:47;97812.63;;;1.75;100.00
2192;BME280;1102;49.718;11.902;2022-11-11T05:06:32;97807.22;;;1.65;100.00
2192;BME280;1102;49.718;11.902;2022-11-11T05:09:40;97796.50;;;1.50;100.00
2192;BME280;1102;49.718;11.902;2022-11-11T05:12:26;97770.84;;;1.18;100.00
2192;BME280;1102;49.718;11.902;2022-11-11T05:15:11;97804.88;;;1.52;100.00
2192;BME280;1102;49.718;11.902;2022-11-11T05:18:15;97833.59;;;1.68;100.00
2192;BME280;1102;49.718;11.902;2022-11-11T05:21:22;97829.66;;;1.66;100.00
2192;BME280;1102;49.718;11.902;2022-11-11T05:24:09;97807.53;;;1.28;100.00
2192;BME280;1102;49.718;11.902;2022-11-11T05:27:13;97800.41;;;1.24;100.00
2192;BME280;1102;49.718;11.902;2022-11-11T05:29:58;97744.25;;;1.04;100.00
2192;BME280;1102;49.718;11.902;2022-11-11T05:32:43;97762.38;;;0.99;100.00
2192;BME280;1102;49.718;11.902;2022-11-11T05:35:29;97819.03;;;1.44;100.00
2192;BME280;1102;49.718;11.902;2022-11-11T05:38:14;97844.06;;;1.45;100.00
2192;BME280;1102;49.718;11.902;2022-11-11T05:41:05;97736.28;;;0.71;100.00
2192;BME280;1102;49.718;11.902;2022-11-11T05:43:51;97783.31;;;1.04;100.00
2192;BME280;1102;49.718;11.902;2022-11-11T05:46:36;97734.69;;;0.81;100.00
2192;BME280;1102;49.718;11.902;2022-11-11T05:49:21;97858.00;;;1.51;100.00
2192;BME280;1102;49.718;11.902;2022-11-11T05:52:09;97869.78;;;1.65;100.00
2192;BME280;1102;49.718;11.902;2022-11-11T05:54:55;97846.78;;;1.50;100.00
2192;BME280;1102;49.718;11.902;2022-11-11T05:57:40;97886.53;;;1.57;100.00
2192;BME280;1102;49.718;11.902;2022-11-11T06:00:25;97844.56;;;1.30;100.00
2192;BME280;1102;49.718;11.902;2022-11-11T06:03:11;97887.09;;;1.59;100.00
2192;BME280;1102;49.718;11.902;2022-11-11T06:05:56;97857.78;;;1.52;100.00
2192;BME280;1102;49.718;11.902;2022-11-11T06:08:41;97867.16;;;1.65;100.00
2192;BME280;1102;49.718;11.902;2022-11-11T06:11:27;97863.22;;;1.51;100.00
2192;BME280;1102;49.718;11.902;2022-11-11T06:14:17;97853.84;;;1.38;100.00
2192;BME280;1102;49.718;11.902;2022-11-11T06:17:02;97885.91;;;1.90;100.00
2192;BME280;1102;49.718;11.902;2022-11-11T06:19:47;97864.97;;;1.73;100.00
2192;BME280;1102;49.718;11.902;2022-11-11T06:22:33;97871.88;;;1.80;100.00
2192;BME280;1102;49.718;11.902;2022-11-11T06:25:37;97879.25;;;2.11;100.00
2192;BME280;1102;49.718;11.902;2022-11-11T06:29:03;97886.91;;;2.01;100.00
2192;BME280;1102;49.718;11.902;2022-11-11T06:31:49;97873.94;;;1.77;100.00
2192;BME280;1102;49.718;11.902;2022-11-11T06:34:34;97862.84;;;1.59;100.00
2192;BME280;1102;49.718;11.902;2022-11-11T06:37:19;97856.69;;;1.36;100.00
2192;BME280;1102;49.718;11.902;2022-11-11T06:40:05;97871.06;;;1.39;100.00
2192;BME280;1102;49.718;11.902;2022-11-11T06:42:50;97884.66;;;1.41;100.00
2192;BME280;1102;49.718;11.902;2022-11-11T06:45:36;97864.03;;;1.28;100.00
2192;BME280;1102;49.718;11.902;2022-11-11T06:48:23;97889.19;;;1.34;100.00
2192;BME280;1102;49.718;11.902;2022-11-11T06:51:10;97864.97;;;1.10;100.00
2192;BME280;1102;49.718;11.902;2022-11-11T06:53:55;97880.22;;;1.30;100.00
2192;BME280;1102;49.718;11.902;2022-11-11T06:56:40;97865.63;;;1.05;100.00
2192;BME280;1102;49.718;11.902;2022-11-11T06:59:25;97829.31;;;0.87;100.00
2192;BME280;1102;49.718;11.902;2022-11-11T07:02:12;97827.72;;;0.74;100.00
2192;BME280;1102;49.718;11.902;2022-11-11T07:04:58;97914.78;;;1.13;100.00
2192;BME280;1102;49.718;11.902;2022-11-11T07:07:44;97904.59;;;1.35;100.00
2192;BME280;1102;49.718;11.902;2022-11-11T07:10:30;97906.50;;;1.40;100.00
2192;BME280;1102;49.718;11.902;2022-11-11T07:13:16;97911.81;;;1.45;100.00
2192;BME280;1102;49.718;11.902;2022-11-11T07:16:01;97875.38;;;1.22;100.00
2192;BME280;1102;49.718;11.902;2022-11-11T07:18:46;97902.09;;;1.52;100.00
2192;BME280;1102;49.718;11.902;2022-11-11T07:21:31;97895.69;;;1.71;100.00
2192;BME280;1102;49.718;11.902;2022-11-11T07:24:17;97906.47;;;1.75;100.00
2192;BME280;1102;49.718;11.902;2022-11-11T07:27:02;97866.09;;;1.37;100.00
2192;BME280;1102;49.718;11.902;2022-11-11T07:29:47;97788.75;;;0.91;100.00
2192;BME280;1102;49.718;11.902;2022-11-11T07:32:33;97877.06;;;1.51;100.00
2192;BME280;1102;49.718;11.902;2022-11-11T07:35:19;97917.34;;;1.72;100.00
2192;BME280;1102;49.718;11.902;2022-11-11T07:38:04;97897.09;;;1.62;100.00
2192;BME280;1102;49.718;11.902;2022-11-11T07:40:49;97890.72;;;1.58;100.00
2192;BME280;1102;49.718;11.902;2022-11-11T07:43:35;97868.47;;;1.39;100.00
2192;BME280;1102;49.718;11.902;2022-11-11T07:46:20;97882.13;;;1.46;100.00
2192;BME280;1102;49.718;11.902;2022-11-11T07:49:06;97893.09;;;1.60;100.00
2192;BME280;1102;49.718;11.902;2022-11-11T07:51:51;97921.56;;;1.61;100.00
2192;BME280;1102;49.718;11.902;2022-11-11T07:54:36;97882.72;;;1.36;100.00
2192;BME280;1102;49.718;11.902;2022-11-11T07:57:22;97920.97;;;1.71;100.00
2192;BME280;1102;49.718;11.902;2022-11-11T08:00:08;97883.28;;;1.50;100.00
2192;BME280;1102;49.718;11.902;2022-11-11T08:02:54;97898.91;;;1.50;100.00
2192;BME280;1102;49.718;11.902;2022-11-11T08:05:43;97853.16;;;1.19;100.00
2192;BME280;1102;49.718;11.902;2022-11-11T08:08:28;97901.53;;;1.38;100.00
2192;BME280;1102;49.718;11.902;2022-11-11T08:11:14;97912.13;;;1.72;100.00
2192;BME280;1102;49.718;11.902;2022-11-11T08:14:00;97869.56;;;1.43;100.00
2192;BME280;1102;49.718;11.902;2022-11-11T08:16:45;97922.91;;;1.75;100.00
2192;BME280;1102;49.718;11.902;2022-11-11T08:19:31;97922.63;;;2.00;100.00
2192;BME280;1102;49.718;11.902;2022-11-11T08:22:16;97944.94;;;2.08;100.00
2192;BME280;1102;49.718;11.902;2022-11-11T08:25:02;97930.31;;;2.07;100.00
2192;BME280;1102;49.718;11.902;2022-11-11T08:28:00;97917.69;;;2.16;100.00
2192;BME280;1102;49.718;11.902;2022-11-11T08:30:45;97914.97;;;2.11;100.00
2192;BME280;1102;49.718;11.902;2022-11-11T08:33:32;97842.75;;;1.71;100.00
2192;BME280;1102;49.718;11.902;2022-11-11T08:36:20;97826.00;;;1.67;100.00
2192;BME280;1102;49.718;11.902;2022-11-11T08:39:07;97907.31;;;2.32;100.00
2192;BME280;1102;49.718;11.902;2022-11-11T08:41:53;97942.38;;;2.53;100.00
2192;BME280;1102;49.718;11.902;2022-11-11T08:44:38;97918.63;;;2.10;100.00
2192;BME280;1102;49.718;11.902;2022-11-11T08:47:23;97902.97;;;2.10;100.00
2192;BME280;1102;49.718;11.902;2022-11-11T08:50:09;97944.66;;;2.50;100.00
2192;BME280;1102;49.718;11.902;2022-11-11T08:52:55;97924.75;;;2.44;100.00
2192;BME280;1102;49.718;11.902;2022-11-11T08:55:40;97924.34;;;2.52;100.00
2192;BME280;1102;49.718;11.902;2022-11-11T08:58:26;97942.00;;;2.61;100.00
2192;BME280;1102;49.718;11.902;2022-11-11T09:01:12;97976.31;;;2.82;100.00
2192;BME280;1102;49.718;11.902;2022-11-11T09:03:58;97942.06;;;2.50;100.00
2192;BME280;1102;49.718;11.902;2022-11-11T09:07:04;97958.41;;;2.74;100.00
2192;BME280;1102;49.718;11.902;2022-11-11T09:09:50;97973.00;;;2.86;100.00
2192;BME280;1102;49.718;11.902;2022-11-11T09:12:35;97931.31;;;2.63;100.00
2192;BME280;1102;49.718;11.902;2022-11-11T09:15:21;97954.41;;;2.83;100.00
2192;BME280;1102;49.718;11.902;2022-11-11T09:18:06;97936.84;;;2.50;100.00
2192;BME280;1102;49.718;11.902;2022-11-11T09:20:52;97932.59;;;2.60;100.00
2192;BME280;1102;49.718;11.902;2022-11-11T09:23:38;97940.38;;;2.72;100.00
2192;BME280;1102;49.718;11.902;2022-11-11T09:26:23;97961.94;;;2.96;100.00
2192;BME280;1102;49.718;11.902;2022-11-11T09:29:08;97971.91;;;2.99;100.00
2192;BME280;1102;49.718;11.902;2022-11-11T09:31:54;97888.19;;;2.44;100.00
2192;BME280;1102;49.718;11.902;2022-11-11T09:34:39;97944.34;;;2.91;100.00
2192;BME280;1102;49.718;11.902;2022-11-11T09:37:25;97952.22;;;3.08;100.00
2192;BME280;1102;49.718;11.902;2022-11-11T09:40:18;97949.81;;;3.07;100.00
2192;BME280;1102;49.718;11.902;2022-11-11T09:46:21;97949.41;;;3.15;100.00
2192;BME280;1102;49.718;11.902;2022-11-11T09:55:01;97976.56;;;3.31;100.00
2192;BME280;1102;49.718;11.902;2022-11-11T09:58:21;97984.75;;;3.34;100.00
2192;BME280;1102;49.718;11.902;2022-11-11T10:01:16;97958.03;;;3.32;100.00
2192;BME280;1102;49.718;11.902;2022-11-11T10:04:16;97983.78;;;3.57;100.00
2192;BME280;1102;49.718;11.902;2022-11-11T10:07:25;97966.13;;;3.47;100.00
2192;BME280;1102;49.718;11.902;2022-11-11T10:13:32;97966.69;;;3.49;100.00
2192;BME280;1102;49.718;11.902;2022-11-11T10:16:26;97990.50;;;3.70;100.00
2192;BME280;1102;49.718;11.902;2022-11-11T10:22:37;97981.69;;;3.59;100.00
2192;BME280;1102;49.718;11.902;2022-11-11T10:25:26;97981.00;;;3.64;100.00
2192;BME280;1102;49.718;11.902;2022-11-11T10:28:15;97960.06;;;3.64;100.00
2192;BME280;1102;49.718;11.902;2022-11-11T10:31:05;97975.78;;;3.64;100.00
2192;BME280;1102;49.718;11.902;2022-11-11T10:34:00;97968.50;;;3.88;100.00
2192;BME280;1102;49.718;11.902;2022-11-11T10:36:50;97921.56;;;3.59;100.00
2192;BME280;1102;49.718;11.902;2022-11-11T10:42:24;97942.28;;;3.82;100.00
2192;BME280;1102;49.718;11.902;2022-11-11T10:48:12;97943.63;;;4.29;100.00
2192;BME280;1102;49.718;11.902;2022-11-11T10:51:01;97939.03;;;3.97;100.00
2192;BME280;1102;49.718;11.902;2022-11-11T10:53:50;97975.25;;;4.27;100.00
2192;BME280;1102;49.718;11.902;2022-11-11T10:59:47;97963.09;;;4.65;100.00
2192;BME280;1102;49.718;11.902;2022-11-11T11:02:44;97960.78;;;4.95;100.00
2192;BME280;1102;49.718;11.902;2022-11-11T11:05:41;97926.31;;;4.82;100.00
2192;BME280;1102;49.718;11.902;2022-11-11T11:08:55;97945.59;;;4.97;100.00
2192;BME280;1102;49.718;11.902;2022-11-11T11:12:13;97962.59;;;4.95;100.00
2192;BME280;1102;49.718;11.902;2022-11-11T11:15:05;97969.69;;;4.67;100.00
2192;BME280;1102;49.718;11.902;2022-11-11T11:18:11;97971.81;;;4.70;100.00
2192;BME280;1102;49.718;11.902;2022-11-11T11:21:06;97947.50;;;4.53;100.00
2192;BME280;1102;49.718;11.902;2022-11-11T11:23:52;97968.94;;;4.72;100.00
2192;BME280;1102;49.718;11.902;2022-11-11T11:26:45;97949.13;;;4.54;100.00
2192;BME280;1102;49.718;11.902;2022-11-11T11:29:42;97937.69;;;4.65;100.00
2192;BME280;1102;49.718;11.902;2022-11-11T11:32:30;97965.69;;;4.92;100.00
2192;BME280;1102;49.718;11.902;2022-11-11T11:38:14;97952.69;;;5.02;100.00
2192;BME280;1102;49.718;11.902;2022-11-11T11:40:59;97927.53;;;5.01;100.00
2192;BME280;1102;49.718;11.902;2022-11-11T11:43:45;97942.53;;;5.11;100.00
2192;BME280;1102;49.718;11.902;2022-11-11T11:46:37;97967.03;;;5.21;100.00
2192;BME280;1102;49.718;11.902;2022-11-11T11:52:37;97947.78;;;5.11;100.00
2192;BME280;1102;49.718;11.902;2022-11-11T11:55:32;97938.03;;;5.06;100.00
2192;BME280;1102;49.718;11.902;2022-11-11T12:13:04;97907.19;;;5.18;100.00
2192;BME280;1102;49.718;11.902;2022-11-11T12:16:24;97934.44;;;5.49;100.00
2192;BME280;1102;49.718;11.902;2022-11-11T12:37:06;97927.69;;;5.63;100.00
2192;BME280;1102;49.718;11.902;2022-11-11T12:43:20;97921.94;;;5.72;100.00
2192;BME280;1102;49.718;11.902;2022-11-11T12:46:18;97883.19;;;5.37;100.00
2192;BME280;1102;49.718;11.902;2022-11-11T12:49:48;97890.50;;;5.29;100.00
2192;BME280;1102;49.718;11.902;2022-11-11T12:58:54;97928.38;;;5.49;100.00
2192;BME280;1102;49.718;11.902;2022-11-11T13:11:13;97902.94;;;5.49;100.00
2192;BME280;1102;49.718;11.902;2022-11-11T13:15:13;97889.75;;;5.39;100.00
2192;BME280;1102;49.718;11.902;2022-11-11T13:17:38;97904.53;;;5.55;100.00
2192;BME280;1102;49.718;11.902;2022-11-11T13:23:20;97889.50;;;5.41;100.00
2192;BME280;1102;49.718;11.902;2022-11-11T13:26:23;97881.38;;;5.37;100.00
2192;BME280;1102;49.718;11.902;2022-11-11T13:32:26;97907.28;;;5.76;100.00
2192;BME280;1102;49.718;11.902;2022-11-11T13:35:28;97920.94;;;5.83;100.00
2192;BME280;1102;49.718;11.902;2022-11-11T13:41:10;97879.66;;;5.63;100.00
2192;BME280;1102;49.718;11.902;2022-11-11T13:43:57;97899.16;;;5.82;100.00
2192;BME280;1102;49.718;11.902;2022-11-11T13:46:47;97874.13;;;5.59;100.00
2192;BME280;1102;49.718;11.902;2022-11-11T13:49:56;97897.59;;;5.81;100.00
2192;BME280;1102;49.718;11.902;2022-11-11T13:52:56;97911.56;;;5.92;100.00
2192;BME280;1102;49.718;11.902;2022-11-11T13:55:45;97910.50;;;5.88;100.00
2192;BME280;1102;49.718;11.902;2022-11-11T13:58:34;97915.78;;;5.93;100.00
2192;BME280;1102;49.718;11.902;2022-11-11T14:01:20;97873.94;;;5.76;100.00
2192;BME280;1102;49.718;11.902;2022-11-11T14:04:07;97907.66;;;6.00;100.00
2192;BME280;1102;49.718;11.902;2022-11-11T14:06:53;97912.91;;;6.00;100.00
2192;BME280;1102;49.718;11.902;2022-11-11T14:12:50;97901.91;;;6.13;100.00
2192;BME280;1102;49.718;11.902;2022-11-11T14:15:43;97900.34;;;6.02;100.00
2192;BME280;1102;49.718;11.902;2022-11-11T14:18:35;97874.22;;;5.85;100.00
2192;BME280;1102;49.718;11.902;2022-11-11T14:24:40;97876.31;;;5.78;100.00
2192;BME280;1102;49.718;11.902;2022-11-11T14:27:29;97906.31;;;5.92;100.00
2192;BME280;1102;49.718;11.902;2022-11-11T14:30:34;97885.72;;;5.74;100.00
2192;BME280;1102;49.718;11.902;2022-11-11T14:39:46;97890.88;;;6.06;100.00
2192;BME280;1102;49.718;11.902;2022-11-11T14:51:45;97911.13;;;6.15;100.00
2192;BME280;1102;49.718;11.902;2022-11-11T14:54:35;97887.72;;;6.09;100.00
2192;BME280;1102;49.718;11.902;2022-11-11T15:00:59;97887.72;;;6.04;100.00
2192;BME280;1102;49.718;11.902;2022-11-11T15:03:52;97887.75;;;6.14;100.00
2192;BME280;1102;49.718;11.902;2022-11-11T15:06:46;97890.09;;;6.05;100.00
2192;BME280;1102;49.718;11.902;2022-11-11T15:21:56;97889.25;;;5.95;100.00
2192;BME280;1102;49.718;11.902;2022-11-11T15:36:55;97882.88;;;5.80;100.00
2192;BME280;1102;49.718;11.902;2022-11-11T15:39:47;97877.31;;;5.67;100.00
2192;BME280;1102;49.718;11.902;2022-11-11T15:42:36;97885.97;;;5.67;100.00
2192;BME280;1102;49.718;11.902;2022-11-11T15:45:33;97875.16;;;5.58;100.00
2192;BME280;1102;49.718;11.902;2022-11-11T15:48:26;97863.56;;;5.44;100.00
2192;BME280;1102;49.718;11.902;2022-11-11T15:51:30;97885.72;;;5.69;100.00
2192;BME280;1102;49.718;11.902;2022-11-11T15:54:20;97889.66;;;5.71;100.00
2192;BME280;1102;49.718;11.902;2022-11-11T15:57:26;97877.31;;;5.72;100.00
2192;BME280;1102;49.718;11.902;2022-11-11T16:00:29;97883.09;;;5.69;100.00
2192;BME280;1102;49.718;11.902;2022-11-11T16:03:19;97883.09;;;5.74;100.00
2192;BME280;1102;49.718;11.902;2022-11-11T16:06:08;97882.38;;;5.83;100.00
2192;BME280;1102;49.718;11.902;2022-11-11T16:08:54;97833.97;;;5.59;100.00
2192;BME280;1102;49.718;11.902;2022-11-11T16:11:41;97802.38;;;5.33;100.00
2192;BME280;1102;49.718;11.902;2022-11-11T16:14:34;97871.84;;;5.78;100.00
2192;BME280;1102;49.718;11.902;2022-11-11T16:17:28;97875.00;;;5.75;100.00
2192;BME280;1102;49.718;11.902;2022-11-11T16:20:15;97833.97;;;5.49;100.00
2192;BME280;1102;49.718;11.902;2022-11-11T16:23:06;97865.00;;;5.72;100.00
2192;BME280;1102;49.718;11.902;2022-11-11T16:25:51;97867.34;;;5.74;100.00
2192;BME280;1102;49.718;11.902;2022-11-11T16:28:47;97862.66;;;5.76;100.00
2192;BME280;1102;49.718;11.902;2022-11-11T16:37:14;97869.84;;;5.96;100.00
2192;BME280;1102;49.718;11.902;2022-11-11T16:40:24;97873.28;;;6.06;100.00
2192;BME280;1102;49.718;11.902;2022-11-11T16:43:16;97856.38;;;5.87;100.00
2192;BME280;1102;49.718;11.902;2022-11-11T16:46:06;97895.63;;;6.14;100.00
2192;BME280;1102;49.718;11.902;2022-11-11T16:48:52;97882.47;;;6.04;100.00
2192;BME280;1102;49.718;11.902;2022-11-11T16:51:42;97898.47;;;5.97;100.00
2192;BME280;1102;49.718;11.902;2022-11-11T16:54:46;97664.88;;;4.41;100.00
2192;BME280;1102;49.718;11.902;2022-11-11T16:57:53;97678.50;;;4.43;100.00
2192;BME280;1102;49.718;11.902;2022-11-11T17:01:05;97681.47;;;4.57;100.00
2192;BME280;1102;49.718;11.902;2022-11-11T17:04:08;97846.63;;;5.67;100.00
2192;BME280;1102;49.718;11.902;2022-11-11T17:07:37;97816.59;;;5.43;100.00
2192;BME280;1102;49.718;11.902;2022-11-11T17:10:38;97903.22;;;6.05;100.00
2192;BME280;1102;49.718;11.902;2022-11-11T17:13:25;97885.81;;;5.89;100.00
2192;BME280;1102;49.718;11.902;2022-11-11T17:16:12;97885.06;;;5.93;100.00
2192;BME280;1102;49.718;11.902;2022-11-11T17:19:02;97891.41;;;6.03;100.00
2192;BME280;1102;49.718;11.902;2022-11-11T17:21:47;97902.41;;;6.00;100.00
2192;BME280;1102;49.718;11.902;2022-11-11T17:24:33;97868.66;;;5.71;100.00
2192;BME280;1102;49.718;11.902;2022-11-11T17:27:18;97873.06;;;5.60;100.00
2192;BME280;1102;49.718;11.902;2022-11-11T17:30:04;97899.16;;;5.77;100.00
2192;BME280;1102;49.718;11.902;2022-11-11T17:32:49;97900.69;;;5.73;100.00
2192;BME280;1102;49.718;11.902;2022-11-11T17:35:35;97865.19;;;5.50;100.00
2192;BME280;1102;49.718;11.902;2022-11-11T17:38:20;97886.78;;;5.73;100.00
2192;BME280;1102;49.718;11.902;2022-11-11T17:41:05;97898.84;;;5.69;100.00
2192;BME280;1102;49.718;11.902;2022-11-11T17:43:51;97860.19;;;5.54;100.00